createdAt,value
2024-04-17T00:03:14.957Z,-3.62
2024-04-17T00:08:18.975Z,-3.25
2024-04-17T00:13:23.113Z,-2.97
2024-04-17T00:18:27.427Z,-2.71
2024-04-17T00:23:31.192Z,-2.44
2024-04-17T00:28:35.039Z,-2.23
2024-04-17T00:33:38.986Z,-1.68
2024-04-17T00:38:43.349Z,-1.37
2024-04-17T00:43:47.354Z,-1.21
2024-04-17T00:48:51.223Z,-0.78
2024-04-17T00:53:55.498Z,-0.42
2024-04-17T00:59:01.139Z,-0.09
2024-04-17T01:04:05.296Z,0.20
2024-04-17T01:09:09.340Z,0.32
2024-04-17T01:14:13.454Z,0.57
2024-04-17T01:19:19.183Z,0.65
2024-04-17T01:24:23.171Z,0.83
2024-04-17T01:29:26.960Z,1.34
2024-04-17T01:34:31.023Z,1.73
2024-04-17T01:39:35.040Z,2.13
2024-04-17T01:44:39.117Z,2.48
2024-04-17T01:49:43.109Z,2.72
2024-04-17T01:54:47.009Z,3.02
2024-04-17T01:59:50.992Z,3.29
2024-04-17T02:04:54.740Z,3.31
2024-04-17T02:09:58.586Z,3.51
2024-04-17T02:15:02.740Z,3.85
2024-04-17T02:20:09.443Z,4.01
2024-04-17T02:25:13.290Z,4.33
2024-04-17T02:30:17.104Z,4.55
2024-04-17T02:35:21.071Z,4.55
2024-04-17T02:40:25.178Z,4.93
2024-04-17T02:45:29.335Z,5.15
2024-04-17T02:50:33.306Z,5.31
2024-04-17T02:55:37.324Z,5.49
2024-04-17T03:00:41.272Z,5.76
2024-04-17T03:05:44.919Z,5.88
2024-04-17T03:10:48.776Z,5.88
2024-04-17T03:15:52.837Z,6.20
2024-04-17T03:21:02.082Z,6.25
2024-04-17T03:26:06.143Z,6.58
2024-04-17T03:31:10.079Z,6.83
2024-04-17T03:36:14.317Z,6.97
2024-04-17T03:41:18.273Z,7.11
2024-04-17T03:46:22.359Z,7.19
2024-04-17T03:51:26.098Z,7.36
2024-04-17T03:56:30.060Z,7.41
2024-04-17T04:01:38.459Z,7.54
2024-04-17T04:06:42.327Z,7.70
2024-04-17T04:11:46.324Z,7.79
2024-04-17T04:16:50.349Z,7.66
2024-04-17T04:21:54.301Z,7.81
2024-04-17T04:26:57.989Z,8.02
2024-04-17T04:32:01.965Z,8.19
2024-04-17T04:37:06.054Z,8.38
2024-04-17T04:42:10.231Z,8.38
2024-04-17T04:47:16.960Z,8.61
2024-04-17T04:52:20.762Z,8.66
2024-04-17T04:57:25.090Z,8.69
2024-04-17T05:02:28.757Z,8.45
2024-04-17T05:07:32.585Z,8.65
2024-04-17T05:12:36.354Z,8.33
2024-04-17T05:17:40.540Z,8.56
2024-04-17T05:22:44.422Z,8.61
2024-04-17T05:27:48.495Z,8.65
2024-04-17T05:32:52.541Z,8.74
2024-04-17T05:37:56.454Z,8.81
2024-04-17T05:43:00.650Z,8.80
2024-04-17T05:48:05.193Z,8.76
2024-04-17T05:53:09.483Z,8.57
2024-04-17T05:58:13.376Z,8.68
2024-04-17T06:03:17.165Z,8.41
2024-04-17T06:08:21.297Z,8.61
2024-04-17T06:13:25.303Z,8.63
2024-04-17T06:18:29.193Z,8.62
2024-04-17T06:23:33.288Z,8.80
2024-04-17T06:28:37.035Z,8.93
2024-04-17T06:33:40.972Z,8.97
2024-04-17T06:38:46.651Z,8.98
2024-04-17T06:43:50.401Z,9.03
2024-04-17T06:48:54.572Z,9.46
2024-04-17T06:53:58.425Z,9.21
2024-04-17T06:59:02.402Z,9.56
2024-04-17T07:04:06.360Z,10.52
2024-04-17T07:09:10.283Z,10.37
2024-04-17T07:14:14.253Z,10.13
2024-04-17T07:19:18.038Z,9.94
2024-04-17T07:24:21.911Z,9.99
2024-04-17T07:29:25.754Z,10.45
2024-04-17T07:34:29.828Z,10.78
2024-04-17T07:39:33.834Z,10.94
2024-04-17T07:44:37.664Z,11.18
2024-04-17T07:49:41.671Z,10.74
2024-04-17T07:54:45.415Z,10.99
2024-04-17T07:59:49.468Z,11.75
2024-04-17T08:04:53.370Z,11.58
2024-04-17T08:09:57.375Z,12.95
2024-04-17T08:15:01.271Z,13.89
2024-04-17T08:20:08.503Z,14.51
2024-04-17T08:25:12.515Z,14.51
2024-04-17T08:30:16.322Z,14.18
2024-04-17T08:35:21.164Z,13.94
2024-04-17T08:40:25.425Z,12.31
2024-04-17T08:50:46.043Z,10.75
2024-04-17T08:55:51.230Z,10.45
2024-04-17T09:00:56.341Z,10.36
2024-04-17T09:06:00.831Z,10.35
2024-04-17T09:11:06.694Z,10.16
2024-04-17T09:16:10.614Z,10.15
2024-04-17T09:21:15.392Z,10.13
2024-04-17T09:26:20.932Z,10.27
2024-04-17T09:31:25.506Z,10.82
2024-04-17T09:36:29.591Z,10.59
2024-04-17T09:41:35.400Z,10.57
2024-04-17T09:46:39.722Z,10.79
2024-04-17T09:51:47.753Z,10.96
2024-04-17T09:56:52.507Z,10.70
2024-04-17T10:01:59.323Z,10.46
2024-04-17T10:07:04.622Z,10.32
2024-04-17T10:12:14.239Z,10.27
2024-04-17T10:17:29.979Z,10.28
2024-04-17T10:22:40.213Z,10.51
2024-04-17T10:27:51.159Z,10.39
2024-04-17T10:32:55.343Z,10.30
2024-04-17T10:38:19.530Z,10.30
2024-04-17T10:43:36.484Z,10.25
2024-04-17T10:48:51.952Z,10.22
2024-04-17T10:53:57.558Z,10.20
2024-04-17T10:59:03.210Z,10.23
2024-04-17T11:04:08.736Z,10.34
2024-04-17T11:09:14.126Z,10.37
2024-04-17T11:14:19.072Z,10.32
2024-04-17T11:19:23.192Z,10.28
2024-04-17T11:24:26.912Z,10.25
2024-04-17T11:29:39.811Z,10.18
2024-04-17T11:34:47.361Z,10.13
2024-04-17T11:39:52.595Z,10.09
2024-04-17T11:44:57.455Z,10.03
2024-04-17T11:50:01.840Z,9.98
2024-04-17T11:55:08.199Z,9.94
2024-04-17T12:00:12.908Z,9.94
2024-04-17T12:05:16.794Z,9.92
2024-04-17T12:10:21.862Z,9.83
2024-04-17T12:15:26.000Z,9.81
2024-04-17T12:20:29.884Z,9.76
2024-04-17T12:25:52.267Z,9.65
2024-04-17T12:30:57.460Z,9.58
2024-04-17T12:36:01.940Z,9.48
2024-04-17T12:41:06.022Z,9.42
2024-04-17T12:46:10.064Z,9.36
2024-04-17T12:51:14.245Z,9.30
2024-04-17T12:56:20.401Z,9.26
2024-04-17T13:01:24.293Z,9.21
2024-04-17T13:06:30.635Z,9.17
2024-04-17T13:11:40.503Z,9.11
2024-04-17T13:16:45.105Z,8.98
2024-04-17T13:21:48.936Z,9.03
2024-04-17T13:26:52.962Z,9.07
2024-04-17T13:31:56.805Z,9.07
2024-04-17T13:37:01.147Z,8.98
2024-04-17T13:42:05.591Z,8.90
2024-04-17T13:47:09.573Z,8.80
2024-04-17T13:52:13.553Z,8.73
2024-04-17T13:57:17.571Z,8.78
2024-04-17T14:02:21.849Z,8.61
2024-04-17T14:07:25.951Z,8.41
2024-04-17T14:12:29.688Z,8.20
2024-04-17T14:17:33.783Z,7.94
2024-04-17T14:22:37.528Z,7.47
2024-04-17T14:27:42.044Z,6.97
2024-04-17T14:32:45.997Z,6.68
2024-04-17T14:37:50.722Z,6.50
2024-04-17T14:42:54.763Z,6.35
2024-04-17T14:47:58.728Z,6.08
2024-04-17T14:53:02.983Z,5.82
2024-04-17T14:58:06.745Z,5.51
2024-04-17T15:03:10.726Z,5.53
2024-04-17T15:08:14.921Z,5.66
2024-04-17T15:13:18.714Z,5.66
2024-04-17T15:18:22.959Z,5.62
2024-04-17T15:23:27.121Z,5.62
2024-04-17T15:28:31.169Z,5.57
2024-04-17T15:33:37.094Z,5.45
2024-04-17T15:38:41.148Z,5.36
2024-04-17T15:43:46.625Z,5.30
2024-04-17T15:48:50.437Z,5.36
2024-04-17T15:53:54.443Z,5.36
2024-04-17T15:58:58.189Z,5.35
2024-04-17T16:04:02.297Z,5.32
2024-04-17T16:09:06.274Z,5.27
2024-04-17T16:14:10.037Z,5.20
2024-04-17T16:19:14.011Z,5.33
2024-04-17T16:24:19.110Z,5.36
2024-04-17T16:29:23.120Z,5.32
2024-04-17T16:34:27.217Z,5.17
2024-04-17T16:39:32.878Z,5.12
2024-04-17T16:44:36.920Z,5.10
2024-04-17T16:49:41.058Z,5.13
2024-04-17T16:54:45.314Z,5.23
2024-04-17T16:59:49.897Z,5.17
2024-04-17T17:04:55.678Z,4.95
2024-04-17T17:09:59.539Z,5.06
2024-04-17T17:15:03.613Z,5.07
2024-04-17T17:20:09.774Z,5.09
2024-04-17T17:25:13.710Z,5.09
2024-04-17T17:30:17.602Z,5.03
2024-04-17T17:35:21.503Z,5.03
2024-04-17T17:40:25.753Z,5.13
2024-04-17T17:45:29.669Z,5.20
2024-04-17T17:50:33.670Z,5.31
2024-04-17T17:55:37.392Z,5.42
2024-04-17T18:00:42.172Z,5.40
2024-04-17T18:05:56.529Z,5.46
2024-04-17T18:11:00.729Z,5.38
2024-04-17T18:16:12.799Z,5.44
2024-04-17T18:21:24.450Z,5.38
2024-04-17T18:26:30.377Z,5.41
2024-04-17T18:31:36.120Z,5.41
2024-04-17T18:36:39.937Z,5.48
2024-04-17T18:41:44.261Z,5.46
2024-04-17T18:46:48.276Z,5.45
2024-04-17T18:51:53.387Z,5.44
2024-04-17T18:56:57.093Z,5.42
2024-04-17T19:02:01.102Z,5.39
2024-04-17T19:07:05.329Z,5.33
2024-04-17T19:12:09.595Z,5.26
2024-04-17T19:17:13.467Z,5.18
2024-04-17T19:22:17.365Z,5.05
2024-04-17T19:27:21.289Z,5.00
2024-04-17T19:32:26.616Z,4.91
2024-04-17T19:37:30.405Z,4.83
2024-04-17T19:42:39.524Z,4.56
2024-04-17T19:47:50.526Z,4.85
2024-04-17T19:52:54.456Z,4.88
2024-04-17T19:57:58.221Z,4.91
2024-04-17T20:03:02.206Z,4.89
2024-04-17T20:08:06.312Z,4.93
2024-04-17T20:13:12.155Z,4.97
2024-04-17T20:18:17.688Z,5.02
2024-04-17T20:23:23.270Z,5.08
2024-04-17T20:28:27.046Z,5.07
2024-04-17T20:33:35.509Z,5.07
2024-04-17T20:38:40.520Z,4.48
2024-04-17T20:43:46.102Z,4.95
2024-04-17T20:48:52.805Z,4.89
2024-04-17T20:53:56.701Z,4.92
2024-04-17T20:59:00.425Z,4.90
2024-04-17T21:04:04.546Z,4.83
2024-04-17T21:09:08.549Z,4.77
2024-04-17T21:14:12.658Z,4.70
2024-04-17T21:19:16.476Z,4.70
2024-04-17T21:24:22.610Z,4.64
2024-04-17T21:29:26.719Z,4.65
2024-04-17T21:34:30.730Z,4.63
2024-04-17T21:39:34.805Z,4.63
2024-04-17T21:44:38.725Z,4.61
2024-04-17T21:49:42.832Z,4.53
2024-04-17T21:54:46.793Z,4.49
2024-04-17T21:59:52.275Z,4.44
2024-04-17T22:04:57.347Z,4.43
2024-04-17T22:10:01.269Z,4.40
2024-04-17T22:15:07.792Z,4.38
2024-04-17T22:20:11.533Z,4.41
2024-04-17T22:25:15.819Z,4.38
2024-04-17T22:30:19.664Z,4.30
2024-04-17T22:35:23.947Z,4.36
2024-04-17T22:40:27.861Z,4.29
2024-04-17T22:45:31.984Z,4.29
2024-04-17T22:50:35.987Z,4.31
2024-04-17T22:55:39.698Z,4.27
2024-04-17T23:00:44.187Z,4.18
2024-04-17T23:05:47.938Z,4.06
2024-04-17T23:11:01.179Z,3.99
2024-04-17T23:16:05.348Z,3.92
2024-04-17T23:21:09.384Z,3.81
2024-04-17T23:26:13.250Z,3.79
2024-04-17T23:31:17.110Z,3.84
2024-04-17T23:36:24.013Z,3.90
2024-04-17T23:41:27.901Z,4.04
2024-04-17T23:46:31.830Z,3.99
2024-04-17T23:51:35.893Z,3.92
2024-04-17T23:56:39.703Z,3.94
